Time;durP1;ratioP1;P1;durP2;ratioP2;P2;SDS_P1;SDS_P2;PMS_P1;PMS_P2;Temp;Humidity;BMP_temperature;BMP_pressure;BME280_temperature;BME280_humidity;BME280_pressure;Samples;Min_cycle;Max_cycle;Signal;HPM_P1;HPM_P2
2022/06/16 00:02:27;;;;;;;11.60;6.40;;;;;;;;;;10443418;28;20394;-73
2022/06/16 00:07:27;;;;;;;7.90;5.95;;;;;;;;;;10407886;28;20552;-73
2022/06/16 00:12:27;;;;;;;7.97;5.60;;;;;;;;;;10443601;28;20778;-73
2022/06/16 00:17:27;;;;;;;11.63;6.22;;;;;;;;;;10426231;28;20571;-77
2022/06/16 00:22:28;;;;;;;8.52;5.53;;;;;;;;;;10425191;28;20626;-74
2022/06/16 00:27:28;;;;;;;13.70;5.70;;;;;;;;;;10425572;28;20833;-74
2022/06/16 00:32:28;;;;;;;7.20;5.00;;;;;;;;;;10425135;28;20407;-74
2022/06/16 00:37:29;;;;;;;9.18;5.60;;;;;;;;;;10424417;28;20023;-74
2022/06/16 00:42:29;;;;;;;8.40;6.25;;;;;;;;;;10442688;28;20227;-75
2022/06/16 00:47:30;;;;;;;6.40;5.00;;;;;;;;;;10423345;28;20043;-73
2022/06/16 00:52:32;;;;;;;7.45;5.30;;;;;;;;;;10450074;28;20104;-72
2022/06/16 00:57:43;;;;;;;10.30;5.72;;;;;;;;;;10421135;28;20060;-74
2022/06/16 01:02:44;;;;;;;8.50;5.85;;;;;;;;;;10432839;28;20137;-77
2022/06/16 01:07:46;;;;;;;10.93;5.53;;;;;;;;;;10432745;28;20102;-69
2022/06/16 01:18:44;;;;;;;6.47;5.32;;;;;;;;;;10473889;28;20036;-73
2022/06/16 01:24:17;;;;;;;15.40;6.28;;;;;;;;;;10439226;28;20115;-77
2022/06/16 01:29:33;;;;;;;7.88;5.60;;;;;;;;;;10399490;28;20084;-76
2022/06/16 01:34:50;;;;;;;11.30;7.15;;;;;;;;;;10431837;28;20422;-77
2022/06/16 01:39:59;;;;;;;11.27;6.60;;;;;;;;;;10431476;28;20143;-71
2022/06/16 01:44:59;;;;;;;10.77;6.75;;;;;;;;;;10429908;28;20167;-74
2022/06/16 01:50:04;;;;;;;9.30;7.45;;;;;;;;;;10431586;28;20078;-74
2022/06/16 01:55:10;;;;;;;11.20;8.10;;;;;;;;;;10430837;28;20060;-73
2022/06/16 02:00:18;;;;;;;14.65;8.60;;;;;;;;;;10430017;28;20483;-74
2022/06/16 02:05:29;;;;;;;12.40;8.88;;;;;;;;;;10430930;28;20039;-72
2022/06/16 02:10:31;;;;;;;11.15;8.57;;;;;;;;;;10448365;28;20029;-73
2022/06/16 02:15:36;;;;;;;16.95;9.35;;;;;;;;;;10429639;28;20045;-74
2022/06/16 02:20:58;;;;;;;11.35;9.02;;;;;;;;;;10430446;28;20045;-73
2022/06/16 02:25:58;;;;;;;13.85;9.88;;;;;;;;;;10429748;28;20021;-72
2022/06/16 02:31:04;;;;;;;18.10;9.03;;;;;;;;;;10429880;28;20024;-74
2022/06/16 02:36:05;;;;;;;13.93;9.50;;;;;;;;;;10429580;28;20111;-74
2022/06/16 02:41:21;;;;;;;16.48;9.38;;;;;;;;;;10463551;28;20021;-73
2022/06/16 02:46:37;;;;;;;13.57;9.60;;;;;;;;;;10449076;28;20109;-73
2022/06/16 02:51:42;;;;;;;20.13;9.43;;;;;;;;;;10430187;28;20064;-74
2022/06/16 02:56:48;;;;;;;15.35;9.98;;;;;;;;;;10446373;28;20028;-75
2022/06/16 03:01:49;;;;;;;19.35;10.25;;;;;;;;;;10425459;28;20023;-76
2022/06/16 03:06:50;;;;;;;18.42;10.00;;;;;;;;;;10428096;28;20025;-72
2022/06/16 03:11:50;;;;;;;18.45;10.95;;;;;;;;;;10423339;28;20051;-74
2022/06/16 03:16:50;;;;;;;18.17;9.25;;;;;;;;;;10423445;28;20037;-73
2022/06/16 03:21:51;;;;;;;18.33;9.77;;;;;;;;;;10512912;23;20434;-73
2022/06/16 03:26:51;;;;;;;12.13;8.50;;;;;;;;;;10439445;28;20021;-72
2022/06/16 03:31:53;;;;;;;14.95;10.05;;;;;;;;;;10440594;28;20051;-74
2022/06/16 03:36:53;;;;;;;19.08;10.95;;;;;;;;;;10440571;28;20721;-80
2022/06/16 03:41:53;;;;;;;15.93;10.23;;;;;;;;;;10443627;28;20028;-75
2022/06/16 03:46:53;;;;;;;14.68;9.93;;;;;;;;;;10459891;28;20122;-83
2022/06/16 03:51:54;;;;;;;22.38;9.95;;;;;;;;;;10441567;28;20043;-72
2022/06/16 03:56:54;;;;;;;16.58;9.98;;;;;;;;;;10440846;28;20128;-74
2022/06/16 04:01:54;;;;;;;14.73;10.05;;;;;;;;;;10442904;28;20018;-76
2022/06/16 04:06:54;;;;;;;20.27;11.20;;;;;;;;;;10399133;28;20029;-75
2022/06/16 04:11:55;;;;;;;13.82;10.18;;;;;;;;;;10400735;28;20507;-74
2022/06/16 04:16:58;;;;;;;17.80;10.50;;;;;;;;;;10400628;28;20025;-73
2022/06/16 04:21:58;;;;;;;15.00;9.45;;;;;;;;;;10399818;28;20081;-73
2022/06/16 04:26:58;;;;;;;16.10;9.67;;;;;;;;;;10400333;28;20109;-73
2022/06/16 04:31:59;;;;;;;17.47;9.10;;;;;;;;;;10400589;28;20040;-72
2022/06/16 04:36:59;;;;;;;24.50;9.55;;;;;;;;;;10399334;28;20100;-77
2022/06/16 04:42:00;;;;;;;12.10;8.93;;;;;;;;;;10400627;28;20045;-74
2022/06/16 04:47:02;;;;;;;12.52;9.20;;;;;;;;;;10400488;28;20033;-73
2022/06/16 04:52:02;;;;;;;13.25;9.25;;;;;;;;;;10401677;28;20029;-76
2022/06/16 04:57:02;;;;;;;32.57;12.77;;;;;;;;;;10399509;28;20032;-73
2022/06/16 05:02:03;;;;;;;20.23;10.00;;;;;;;;;;10399821;28;20025;-72
2022/06/16 05:07:03;;;;;;;23.90;9.77;;;;;;;;;;10399160;28;20025;-76
2022/06/16 05:12:06;;;;;;;19.02;9.13;;;;;;;;;;10400850;28;20073;-80
2022/06/16 05:17:06;;;;;;;19.17;10.45;;;;;;;;;;10399807;28;20118;-76
2022/06/16 05:22:07;;;;;;;15.63;10.45;;;;;;;;;;10399358;28;20503;-75
2022/06/16 05:27:08;;;;;;;15.63;9.70;;;;;;;;;;10399605;28;20537;-73
2022/06/16 05:32:11;;;;;;;19.17;9.23;;;;;;;;;;10397821;28;20098;-75
2022/06/16 05:37:12;;;;;;;20.50;11.32;;;;;;;;;;10400083;28;20510;-76
2022/06/16 05:42:12;;;;;;;19.93;10.50;;;;;;;;;;10406141;28;20021;-76
2022/06/16 05:47:12;;;;;;;18.35;9.65;;;;;;;;;;10406519;28;20022;-74
2022/06/16 05:52:15;;;;;;;18.33;9.82;;;;;;;;;;10405371;28;20654;-76
2022/06/16 05:57:15;;;;;;;16.42;9.48;;;;;;;;;;10399301;28;20126;-75
2022/06/16 06:02:16;;;;;;;19.37;10.07;;;;;;;;;;10405730;28;20172;-77
2022/06/16 06:07:17;;;;;;;18.55;9.80;;;;;;;;;;10405408;28;20033;-77
2022/06/16 06:17:37;;;;;;;18.83;10.10;;;;;;;;;;10406699;28;20033;-72
2022/06/16 06:22:37;;;;;;;15.77;9.93;;;;;;;;;;10400431;28;20054;-75
2022/06/16 06:27:42;;;;;;;16.95;10.60;;;;;;;;;;10404246;28;20425;-73
2022/06/16 06:32:43;;;;;;;17.50;9.32;;;;;;;;;;10400536;28;20502;-72
2022/06/16 06:37:43;;;;;;;17.47;11.90;;;;;;;;;;10401105;28;20036;-74
2022/06/16 06:42:43;;;;;;;20.40;11.37;;;;;;;;;;10404338;28;20260;-74
2022/06/16 06:47:44;;;;;;;18.48;10.85;;;;;;;;;;10404110;28;20776;-74
2022/06/16 06:52:44;;;;;;;20.73;10.65;;;;;;;;;;10404355;28;20033;-73
2022/06/16 06:57:45;;;;;;;17.67;10.02;;;;;;;;;;10400753;28;20029;-81
2022/06/16 07:02:45;;;;;;;15.38;10.07;;;;;;;;;;10405143;28;20022;-73
2022/06/16 07:07:46;;;;;;;18.13;11.60;;;;;;;;;;10393844;28;20017;-79
2022/06/16 07:12:46;;;;;;;19.98;11.52;;;;;;;;;;10403123;28;20286;-72
2022/06/16 07:17:47;;;;;;;20.05;11.18;;;;;;;;;;10402927;28;20033;-73
2022/06/16 07:22:47;;;;;;;18.33;11.87;;;;;;;;;;10386094;28;20018;-75
2022/06/16 07:27:47;;;;;;;17.53;11.13;;;;;;;;;;10385033;28;20021;-79
2022/06/16 07:32:48;;;;;;;23.20;10.65;;;;;;;;;;10379303;28;20281;-75
2022/06/16 07:37:49;;;;;;;19.73;10.85;;;;;;;;;;10385288;28;20076;-72
2022/06/16 07:42:50;;;;;;;15.68;9.55;;;;;;;;;;10385906;28;20013;-73
2022/06/16 07:47:51;;;;;;;15.40;8.57;;;;;;;;;;10401042;28;20053;-75
2022/06/16 07:52:51;;;;;;;15.73;10.93;;;;;;;;;;10385095;28;20119;-74
2022/06/16 07:57:51;;;;;;;17.40;11.00;;;;;;;;;;10384327;28;20022;-74
2022/06/16 08:02:53;;;;;;;14.98;9.07;;;;;;;;;;10401613;28;20028;-77
2022/06/16 08:07:53;;;;;;;13.80;9.50;;;;;;;;;;10368159;28;20006;-72
2022/06/16 08:12:54;;;;;;;16.67;10.20;;;;;;;;;;10400903;28;20013;-73
2022/06/16 08:17:55;;;;;;;19.52;10.65;;;;;;;;;;10385855;28;20025;-73
2022/06/16 08:22:55;;;;;;;16.27;10.88;;;;;;;;;;10387022;28;20030;-75
2022/06/16 08:27:56;;;;;;;23.15;13.43;;;;;;;;;;10384551;28;20399;-72
2022/06/16 08:32:57;;;;;;;14.95;10.63;;;;;;;;;;10383701;28;20025;-75
2022/06/16 08:37:58;;;;;;;14.32;10.30;;;;;;;;;;10383825;28;20117;-73
2022/06/16 08:43:03;;;;;;;15.43;9.43;;;;;;;;;;10400700;28;20028;-73
2022/06/16 08:48:13;;;;;;;19.52;10.90;;;;;;;;;;10400761;28;20131;-75
2022/06/16 08:53:32;;;;;;;17.88;10.88;;;;;;;;;;10383856;28;20033;-80
2022/06/16 08:58:50;;;;;;;12.57;8.43;;;;;;;;;;10400489;28;20029;-78
2022/06/16 09:04:26;;;;;;;11.43;8.35;;;;;;;;;;10382629;28;20108;-73
2022/06/16 09:15:14;;;;;;;16.52;9.20;;;;;;;;;;10409516;28;20026;-75
2022/06/16 09:20:19;;;;;;;12.82;8.20;;;;;;;;;;10408825;28;20046;-79
2022/06/16 09:25:22;;;;;;;11.80;8.05;;;;;;;;;;10408476;28;20130;-76
2022/06/16 09:30:26;;;;;;;11.50;8.65;;;;;;;;;;10390760;28;20028;-72
2022/06/16 09:35:45;;;;;;;10.85;8.27;;;;;;;;;;10389302;28;20021;-76
2022/06/16 09:40:48;;;;;;;11.85;6.82;;;;;;;;;;10389968;28;20091;-73
2022/06/16 09:45:54;;;;;;;9.95;7.53;;;;;;;;;;10389459;28;20083;-73
2022/06/16 09:51:20;;;;;;;13.93;8.80;;;;;;;;;;10407763;28;20451;-74
2022/06/16 09:56:23;;;;;;;14.17;8.60;;;;;;;;;;10402880;28;20033;-77
2022/06/16 10:01:25;;;;;;;10.10;6.53;;;;;;;;;;10389365;28;20557;-77
2022/06/16 10:06:37;;;;;;;10.63;6.60;;;;;;;;;;10388665;28;20467;-73
2022/06/16 10:11:38;;;;;;;9.18;5.35;;;;;;;;;;10389132;28;20096;-74
2022/06/16 10:17:01;;;;;;;10.20;6.38;;;;;;;;;;10388927;28;20160;-73
2022/06/16 10:22:02;;;;;;;7.00;4.93;;;;;;;;;;10379158;28;20034;-73
2022/06/16 10:27:02;;;;;;;7.07;6.03;;;;;;;;;;10403953;28;20029;-72
2022/06/16 10:32:04;;;;;;;7.63;4.80;;;;;;;;;;10388139;28;20113;-72
2022/06/16 10:37:22;;;;;;;7.63;6.03;;;;;;;;;;10387582;28;20475;-75
2022/06/16 10:42:31;;;;;;;8.68;5.60;;;;;;;;;;10405509;28;20028;-76
2022/06/16 10:47:35;;;;;;;7.18;5.60;;;;;;;;;;10388057;28;20175;-78
2022/06/16 10:52:38;;;;;;;7.60;5.35;;;;;;;;;;10402839;28;20029;-72
2022/06/16 10:57:44;;;;;;;6.40;5.45;;;;;;;;;;10403870;28;20025;-81
2022/06/16 11:03:03;;;;;;;8.35;6.03;;;;;;;;;;10403168;28;20017;-71
2022/06/16 11:08:08;;;;;;;9.90;6.78;;;;;;;;;;10404132;28;20029;-73
2022/06/16 11:13:16;;;;;;;9.98;6.68;;;;;;;;;;10404865;28;20686;-73
2022/06/16 11:18:17;;;;;;;11.07;7.47;;;;;;;;;;10402424;28;20042;-73
2022/06/16 11:23:18;;;;;;;9.73;7.25;;;;;;;;;;10385110;28;20097;-73
2022/06/16 11:28:22;;;;;;;10.55;7.95;;;;;;;;;;10402650;28;20032;-74
2022/06/16 11:39:04;;;;;;;11.73;8.45;;;;;;;;;;10403006;28;20027;-77
2022/06/16 11:44:09;;;;;;;11.73;8.25;;;;;;;;;;10360682;28;20030;-78
2022/06/16 11:49:09;;;;;;;11.25;7.85;;;;;;;;;;10384696;28;20037;-73
2022/06/16 11:54:16;;;;;;;18.67;8.32;;;;;;;;;;10403297;28;20040;-77
2022/06/16 11:59:36;;;;;;;12.43;8.85;;;;;;;;;;10384152;28;20387;-79
2022/06/16 12:04:41;;;;;;;14.30;9.13;;;;;;;;;;10402457;28;20024;-74
2022/06/16 12:09:42;;;;;;;11.15;8.40;;;;;;;;;;10386897;28;20021;-74
2022/06/16 12:14:42;;;;;;;12.57;8.73;;;;;;;;;;10384962;28;20020;-74
2022/06/16 12:19:51;;;;;;;11.40;8.80;;;;;;;;;;10382928;28;20424;-73
2022/06/16 12:24:59;;;;;;;12.18;8.38;;;;;;;;;;10370832;28;20021;-75
2022/06/16 12:30:03;;;;;;;10.77;8.65;;;;;;;;;;10381719;28;20018;-76
2022/06/16 12:35:32;;;;;;;11.02;8.80;;;;;;;;;;10343253;28;20419;-75
2022/06/16 12:40:38;;;;;;;12.60;9.13;;;;;;;;;;10329534;28;20147;-76
2022/06/16 12:45:41;;;;;;;15.02;9.10;;;;;;;;;;10382892;28;20106;-73
2022/06/16 12:50:45;;;;;;;12.68;8.88;;;;;;;;;;10383880;28;20021;-73
2022/06/16 12:55:54;;;;;;;13.55;9.18;;;;;;;;;;10394691;28;20033;-78
2022/06/16 13:00:56;;;;;;;13.23;9.25;;;;;;;;;;10342527;28;20423;-74
2022/06/16 13:05:57;;;;;;;14.25;9.43;;;;;;;;;;10364804;28;20022;-70
2022/06/16 13:10:59;;;;;;;12.23;9.20;;;;;;;;;;10383515;28;20435;-73
2022/06/16 13:16:00;;;;;;;13.27;9.05;;;;;;;;;;10380297;28;20663;-72
2022/06/16 13:21:03;;;;;;;19.40;10.85;;;;;;;;;;10369068;28;20125;-72
2022/06/16 13:26:18;;;;;;;15.02;9.98;;;;;;;;;;10391465;28;20104;-74
2022/06/16 13:31:24;;;;;;;11.75;9.57;;;;;;;;;;10342131;28;20022;-75
2022/06/16 13:36:25;;;;;;;13.65;9.63;;;;;;;;;;10370301;28;20103;-73
2022/06/16 13:41:42;;;;;;;13.15;9.85;;;;;;;;;;10362100;28;20010;-72
2022/06/16 13:47:08;;;;;;;14.50;9.07;;;;;;;;;;10342986;28;20101;-75
2022/06/16 13:52:14;;;;;;;28.65;11.65;;;;;;;;;;10362093;28;20037;-71
2022/06/16 13:57:22;;;;;;;18.05;9.43;;;;;;;;;;10401706;28;20108;-77
2022/06/16 14:02:23;;;;;;;13.80;9.75;;;;;;;;;;10349426;28;20021;-71
2022/06/16 14:07:23;;;;;;;13.50;8.88;;;;;;;;;;10362254;28;20029;-70
2022/06/16 14:12:42;;;;;;;17.02;10.45;;;;;;;;;;10332766;28;20679;-71
2022/06/16 14:17:42;;;;;;;17.60;11.68;;;;;;;;;;10382622;28;20025;-71
2022/06/16 14:22:45;;;;;;;14.82;10.23;;;;;;;;;;10350012;28;20107;-71
2022/06/16 14:27:49;;;;;;;14.70;10.35;;;;;;;;;;10366929;28;20029;-72
2022/06/16 14:32:55;;;;;;;17.25;9.80;;;;;;;;;;10350557;28;20035;-71
2022/06/16 14:37:55;;;;;;;12.52;9.32;;;;;;;;;;10345455;28;20081;-74
2022/06/16 14:42:59;;;;;;;16.83;10.88;;;;;;;;;;10354796;28;20538;-73
2022/06/16 14:48:02;;;;;;;16.20;11.32;;;;;;;;;;10351424;28;20527;-71
2022/06/16 14:53:12;;;;;;;14.60;10.00;;;;;;;;;;10360575;28;20026;-72
2022/06/16 14:58:12;;;;;;;12.75;9.55;;;;;;;;;;10353829;28;20129;-74
2022/06/16 15:03:15;;;;;;;22.23;11.13;;;;;;;;;;10367302;28;20017;-73
2022/06/16 15:08:17;;;;;;;12.27;9.35;;;;;;;;;;10357785;28;20043;-75
2022/06/16 15:13:20;;;;;;;18.83;12.23;;;;;;;;;;10385478;28;20542;-73
2022/06/16 15:18:21;;;;;;;15.20;9.32;;;;;;;;;;10361180;28;20044;-74
2022/06/16 15:23:23;;;;;;;13.88;9.20;;;;;;;;;;10359411;28;20488;-74
2022/06/16 15:28:24;;;;;;;15.45;10.23;;;;;;;;;;10364428;28;20820;-70
2022/06/16 15:38:45;;;;;;;12.50;8.95;;;;;;;;;;10382303;28;20499;-74
2022/06/16 15:43:46;;;;;;;12.02;7.57;;;;;;;;;;10370067;28;20022;-76
2022/06/16 15:48:46;;;;;;;10.98;8.20;;;;;;;;;;10342452;28;20032;-72
2022/06/16 15:53:47;;;;;;;13.48;9.65;;;;;;;;;;10346292;28;20244;-75
2022/06/16 15:59:00;;;;;;;13.95;9.07;;;;;;;;;;10347055;28;20144;-73
2022/06/16 16:04:00;;;;;;;16.50;8.15;;;;;;;;;;10350333;28;20029;-73
2022/06/16 16:09:02;;;;;;;13.90;7.78;;;;;;;;;;10342985;28;20029;-72
2022/06/16 16:14:02;;;;;;;10.82;8.20;;;;;;;;;;10349197;28;20116;-75
2022/06/16 16:19:08;;;;;;;12.93;8.95;;;;;;;;;;10342055;28;20052;-72
2022/06/16 16:24:10;;;;;;;15.10;10.30;;;;;;;;;;10351132;28;20037;-71
2022/06/16 16:29:10;;;;;;;13.60;10.00;;;;;;;;;;10354646;28;20044;-73
2022/06/16 16:34:10;;;;;;;15.77;10.40;;;;;;;;;;10346167;28;20036;-74
2022/06/16 16:39:11;;;;;;;14.73;10.93;;;;;;;;;;10336753;28;20427;-70
2022/06/16 16:44:14;;;;;;;16.23;11.10;;;;;;;;;;10339552;28;20025;-72
2022/06/16 16:49:14;;;;;;;15.30;10.00;;;;;;;;;;10349873;28;20026;-72
2022/06/16 16:54:16;;;;;;;15.43;9.77;;;;;;;;;;10345906;28;20038;-72
2022/06/16 16:59:18;;;;;;;11.82;8.43;;;;;;;;;;10327541;28;20033;-73
2022/06/16 17:04:24;;;;;;;12.05;8.30;;;;;;;;;;10349685;28;20051;-71
2022/06/16 17:09:25;;;;;;;12.82;9.07;;;;;;;;;;10336899;28;20022;-72
2022/06/16 17:14:27;;;;;;;17.83;11.15;;;;;;;;;;10333172;28;20040;-71
2022/06/16 17:19:31;;;;;;;18.25;11.65;;;;;;;;;;10338950;28;20060;-74
2022/06/16 17:24:32;;;;;;;21.52;13.55;;;;;;;;;;10331993;28;20069;-72
2022/06/16 17:29:34;;;;;;;16.73;12.57;;;;;;;;;;10333310;28;20483;-75
2022/06/16 17:34:39;;;;;;;16.48;12.40;;;;;;;;;;10337815;28;20038;-73
2022/06/16 17:39:39;;;;;;;17.30;12.27;;;;;;;;;;10337700;28;20554;-72
2022/06/16 17:44:40;;;;;;;23.35;13.00;;;;;;;;;;10356406;28;20050;-76
2022/06/16 17:49:41;;;;;;;19.45;13.73;;;;;;;;;;10338643;28;20034;-76
2022/06/16 18:00:02;;;;;;;23.48;13.95;;;;;;;;;;10354204;28;20033;-72
2022/06/16 18:05:02;;;;;;;26.35;13.15;;;;;;;;;;10356589;28;20030;-77
2022/06/16 18:10:05;;;;;;;19.42;13.52;;;;;;;;;;10358746;28;20436;-77
2022/06/16 18:15:20;;;;;;;29.83;14.85;;;;;;;;;;10338208;28;20499;-75
2022/06/16 18:20:24;;;;;;;20.55;13.30;;;;;;;;;;10365241;28;20040;-74
2022/06/16 18:25:25;;;;;;;19.23;13.10;;;;;;;;;;10338276;28;20088;-71
2022/06/16 18:30:25;;;;;;;20.30;13.23;;;;;;;;;;10343447;28;20447;-72
2022/06/16 18:35:27;;;;;;;23.10;14.63;;;;;;;;;;10338084;28;20034;-76
2022/06/16 18:40:29;;;;;;;20.00;12.27;;;;;;;;;;10371943;28;20021;-75
2022/06/16 18:45:30;;;;;;;20.95;12.98;;;;;;;;;;10371409;28;20058;-71
2022/06/16 18:50:30;;;;;;;16.92;12.07;;;;;;;;;;10372605;28;20556;-72
2022/06/16 18:55:31;;;;;;;21.75;12.77;;;;;;;;;;10345074;28;20060;-72
2022/06/16 19:00:31;;;;;;;21.70;11.95;;;;;;;;;;10338273;28;20085;-77
2022/06/16 19:05:32;;;;;;;18.63;13.13;;;;;;;;;;10349909;28;20021;-78
2022/06/16 19:10:32;;;;;;;19.73;13.52;;;;;;;;;;10352441;28;20488;-75
2022/06/16 19:15:33;;;;;;;20.70;12.02;;;;;;;;;;10339130;28;20029;-74
2022/06/16 19:20:35;;;;;;;18.95;12.10;;;;;;;;;;10355276;28;20123;-74
2022/06/16 19:25:36;;;;;;;15.18;10.55;;;;;;;;;;10355359;28;20029;-78
2022/06/16 19:30:40;;;;;;;18.43;12.23;;;;;;;;;;10355268;28;20423;-73
2022/06/16 19:35:41;;;;;;;16.00;11.05;;;;;;;;;;10340642;28;20034;-76
2022/06/16 19:40:41;;;;;;;16.92;12.48;;;;;;;;;;10354334;28;20042;-72
2022/06/16 19:51:02;;;;;;;19.73;13.18;;;;;;;;;;10354799;28;20018;-79
2022/06/16 19:56:03;;;;;;;23.13;14.35;;;;;;;;;;10343585;28;20522;-78
2022/06/16 20:01:03;;;;;;;18.58;12.98;;;;;;;;;;10348379;28;20025;-71
2022/06/16 20:06:05;;;;;;;21.80;11.75;;;;;;;;;;10349011;28;20566;-77
2022/06/16 20:11:05;;;;;;;17.63;12.32;;;;;;;;;;10348275;28;20063;-74
2022/06/16 20:16:06;;;;;;;21.30;11.77;;;;;;;;;;10347748;28;20032;-73
2022/06/16 20:21:11;;;;;;;16.92;11.63;;;;;;;;;;10372689;28;20045;-75
2022/06/16 20:26:12;;;;;;;14.60;10.70;;;;;;;;;;10380107;28;20616;-73
2022/06/16 20:31:14;;;;;;;18.42;11.35;;;;;;;;;;10363467;28;20411;-73
2022/06/16 20:36:14;;;;;;;17.38;12.50;;;;;;;;;;10379638;28;20022;-78
2022/06/16 20:46:35;;;;;;;15.15;10.82;;;;;;;;;;10396771;28;20030;-73
2022/06/16 20:51:36;;;;;;;15.88;10.93;;;;;;;;;;10379381;28;20018;-73
2022/06/16 20:56:36;;;;;;;16.70;10.98;;;;;;;;;;10378417;28;20018;-74
2022/06/16 21:06:57;;;;;;;16.60;11.43;;;;;;;;;;10399905;28;20159;-73
2022/06/16 21:17:17;;;;;;;15.13;11.23;;;;;;;;;;10405021;28;20017;-73
2022/06/16 21:22:23;;;;;;;12.70;9.50;;;;;;;;;;10403002;28;20056;-73
2022/06/16 21:27:24;;;;;;;14.90;11.13;;;;;;;;;;10402185;28;20143;-74
2022/06/16 21:32:25;;;;;;;12.73;9.88;;;;;;;;;;10386549;28;20017;-76
2022/06/16 21:37:26;;;;;;;12.25;9.63;;;;;;;;;;10386506;28;20025;-75
2022/06/16 21:42:28;;;;;;;14.90;8.82;;;;;;;;;;10386461;28;20017;-72
2022/06/16 21:47:30;;;;;;;12.43;9.38;;;;;;;;;;10402113;28;20018;-73
2022/06/16 21:52:33;;;;;;;15.02;8.95;;;;;;;;;;10384927;28;20109;-71
2022/06/16 21:57:33;;;;;;;14.75;9.05;;;;;;;;;;10385424;28;20095;-73
2022/06/16 22:02:33;;;;;;;11.63;8.00;;;;;;;;;;10401443;28;20628;-73
2022/06/16 22:07:34;;;;;;;15.85;7.97;;;;;;;;;;10401350;28;20029;-75
2022/06/16 22:12:34;;;;;;;10.35;8.90;;;;;;;;;;10401612;28;20021;-73
2022/06/16 22:17:35;;;;;;;8.20;7.38;;;;;;;;;;10400244;28;20029;-72
2022/06/16 22:22:35;;;;;;;8.10;7.25;;;;;;;;;;10385815;28;20044;-72
2022/06/16 22:27:35;;;;;;;14.73;8.63;;;;;;;;;;10384472;28;20500;-72
2022/06/16 22:32:36;;;;;;;9.40;7.72;;;;;;;;;;10400374;28;20099;-71
2022/06/16 22:37:36;;;;;;;9.85;8.63;;;;;;;;;;10401999;28;20024;-75
2022/06/16 22:42:36;;;;;;;9.52;8.07;;;;;;;;;;10400070;28;20017;-72
2022/06/16 22:47:37;;;;;;;13.90;7.97;;;;;;;;;;10383983;28;20037;-76
2022/06/16 22:52:37;;;;;;;9.40;8.37;;;;;;;;;;10383525;28;20029;-72
2022/06/16 22:57:39;;;;;;;9.40;8.07;;;;;;;;;;10383598;28;20085;-73
2022/06/16 23:02:39;;;;;;;10.55;7.90;;;;;;;;;;10381390;28;20495;-74
2022/06/16 23:07:40;;;;;;;10.73;8.35;;;;;;;;;;10400469;28;20116;-74
2022/06/16 23:12:40;;;;;;;9.10;7.55;;;;;;;;;;10383489;28;20025;-73
2022/06/16 23:17:43;;;;;;;11.30;8.18;;;;;;;;;;10400603;28;20575;-76
2022/06/16 23:22:43;;;;;;;11.27;7.80;;;;;;;;;;10381624;28;20622;-73
2022/06/16 23:27:43;;;;;;;8.68;7.57;;;;;;;;;;10382417;28;20063;-75
2022/06/16 23:32:44;;;;;;;11.68;8.15;;;;;;;;;;10398316;28;20022;-73
2022/06/16 23:37:45;;;;;;;10.45;7.93;;;;;;;;;;10400248;28;20040;-76
2022/06/16 23:42:45;;;;;;;9.43;7.82;;;;;;;;;;10383141;28;20021;-71
2022/06/16 23:53:05;;;;;;;7.97;7.00;;;;;;;;;;10398040;28;20526;-74
2022/06/16 23:58:20;;;;;;;8.30;6.53;;;;;;;;;;10395615;28;20472;-73
